sensor_id;sensor_type;location;lat;lon;timestamp;temperature;humidity
36924;DHT22;22841;50.252;18.688;2023-08-06T00:02:10;18.10;99.90
36924;DHT22;22841;50.252;18.688;2023-08-06T00:04:36;18.10;99.90
36924;DHT22;22841;50.252;18.688;2023-08-06T00:07:03;18.10;99.90
36924;DHT22;22841;50.252;18.688;2023-08-06T00:09:29;18.10;99.90
36924;DHT22;22841;50.252;18.688;2023-08-06T00:11:55;18.10;99.90
36924;DHT22;22841;50.252;18.688;2023-08-06T00:14:21;18.10;99.90
36924;DHT22;22841;50.252;18.688;2023-08-06T00:16:48;18.10;99.90
36924;DHT22;22841;50.252;18.688;2023-08-06T00:19:14;18.10;99.90
36924;DHT22;22841;50.252;18.688;2023-08-06T00:21:40;18.10;99.90
36924;DHT22;22841;50.252;18.688;2023-08-06T00:24:08;18.10;99.90
36924;DHT22;22841;50.252;18.688;2023-08-06T00:26:34;18.10;99.90
36924;DHT22;22841;50.252;18.688;2023-08-06T00:29:00;18.10;99.90
36924;DHT22;22841;50.252;18.688;2023-08-06T00:31:26;18.10;99.90
36924;DHT22;22841;50.252;18.688;2023-08-06T00:33:52;18.20;99.90
36924;DHT22;22841;50.252;18.688;2023-08-06T00:36:18;18.10;99.90
36924;DHT22;22841;50.252;18.688;2023-08-06T00:38:44;18.10;99.90
36924;DHT22;22841;50.252;18.688;2023-08-06T00:41:10;18.10;99.90
36924;DHT22;22841;50.252;18.688;2023-08-06T00:43:37;18.10;99.90
36924;DHT22;22841;50.252;18.688;2023-08-06T00:46:03;18.10;99.90
36924;DHT22;22841;50.252;18.688;2023-08-06T00:48:29;18.10;99.90
36924;DHT22;22841;50.252;18.688;2023-08-06T00:50:56;18.10;99.90
36924;DHT22;22841;50.252;18.688;2023-08-06T00:53:22;18.00;99.90
36924;DHT22;22841;50.252;18.688;2023-08-06T00:55:48;18.10;99.90
36924;DHT22;22841;50.252;18.688;2023-08-06T00:58:16;18.10;99.90
36924;DHT22;22841;50.252;18.688;2023-08-06T01:00:42;18.10;99.90
36924;DHT22;22841;50.252;18.688;2023-08-06T01:03:08;18.00;99.90
36924;DHT22;22841;50.252;18.688;2023-08-06T01:05:34;18.10;99.90
36924;DHT22;22841;50.252;18.688;2023-08-06T01:13:33;18.10;99.90
36924;DHT22;22841;50.252;18.688;2023-08-06T01:16:03;18.10;99.90
36924;DHT22;22841;50.252;18.688;2023-08-06T01:18:31;18.10;99.90
36924;DHT22;22841;50.252;18.688;2023-08-06T01:20:57;18.10;99.90
36924;DHT22;22841;50.252;18.688;2023-08-06T01:23:24;18.10;99.90
36924;DHT22;22841;50.252;18.688;2023-08-06T01:29:11;18.10;99.90
36924;DHT22;22841;50.252;18.688;2023-08-06T01:31:40;18.10;99.90
36924;DHT22;22841;50.252;18.688;2023-08-06T01:34:13;18.10;99.90
36924;DHT22;22841;50.252;18.688;2023-08-06T01:36:40;18.10;99.90
36924;DHT22;22841;50.252;18.688;2023-08-06T01:39:06;18.10;99.90
36924;DHT22;22841;50.252;18.688;2023-08-06T01:41:32;18.10;99.90
36924;DHT22;22841;50.252;18.688;2023-08-06T01:43:58;18.10;99.90
36924;DHT22;22841;50.252;18.688;2023-08-06T01:46:25;18.20;99.90
36924;DHT22;22841;50.252;18.688;2023-08-06T01:48:51;18.20;99.90
36924;DHT22;22841;50.252;18.688;2023-08-06T01:51:17;18.20;99.90
36924;DHT22;22841;50.252;18.688;2023-08-06T01:53:43;18.20;99.90
36924;DHT22;22841;50.252;18.688;2023-08-06T01:56:09;18.20;99.90
36924;DHT22;22841;50.252;18.688;2023-08-06T01:58:35;18.20;99.90
36924;DHT22;22841;50.252;18.688;2023-08-06T02:01:02;18.10;99.90
36924;DHT22;22841;50.252;18.688;2023-08-06T02:03:28;18.20;99.90
36924;DHT22;22841;50.252;18.688;2023-08-06T02:05:54;18.10;99.90
36924;DHT22;22841;50.252;18.688;2023-08-06T02:08:21;18.20;99.90
36924;DHT22;22841;50.252;18.688;2023-08-06T02:10:47;18.20;99.90
36924;DHT22;22841;50.252;18.688;2023-08-06T02:13:13;18.20;99.90
36924;DHT22;22841;50.252;18.688;2023-08-06T02:15:45;18.20;99.90
36924;DHT22;22841;50.252;18.688;2023-08-06T02:18:15;18.20;99.90
36924;DHT22;22841;50.252;18.688;2023-08-06T02:20:42;18.20;99.90
36924;DHT22;22841;50.252;18.688;2023-08-06T02:23:08;18.20;99.90
36924;DHT22;22841;50.252;18.688;2023-08-06T02:25:35;18.20;99.90
36924;DHT22;22841;50.252;18.688;2023-08-06T02:28:01;18.20;99.90
36924;DHT22;22841;50.252;18.688;2023-08-06T02:30:27;18.20;99.90
36924;DHT22;22841;50.252;18.688;2023-08-06T02:32:54;18.20;99.90
36924;DHT22;22841;50.252;18.688;2023-08-06T02:35:20;18.20;99.90
36924;DHT22;22841;50.252;18.688;2023-08-06T02:37:46;18.30;99.90
36924;DHT22;22841;50.252;18.688;2023-08-06T02:40:12;18.30;99.90
36924;DHT22;22841;50.252;18.688;2023-08-06T02:42:38;18.30;99.90
36924;DHT22;22841;50.252;18.688;2023-08-06T02:45:05;18.30;99.90
36924;DHT22;22841;50.252;18.688;2023-08-06T02:47:31;18.30;99.90
36924;DHT22;22841;50.252;18.688;2023-08-06T02:49:57;18.30;99.90
36924;DHT22;22841;50.252;18.688;2023-08-06T02:52:24;18.30;99.90
36924;DHT22;22841;50.252;18.688;2023-08-06T02:54:50;18.30;99.90
36924;DHT22;22841;50.252;18.688;2023-08-06T02:57:16;18.30;99.90
36924;DHT22;22841;50.252;18.688;2023-08-06T02:59:42;18.30;99.90
36924;DHT22;22841;50.252;18.688;2023-08-06T03:02:08;18.40;99.90
36924;DHT22;22841;50.252;18.688;2023-08-06T03:04:34;18.30;99.90
36924;DHT22;22841;50.252;18.688;2023-08-06T03:07:00;18.40;99.90
36924;DHT22;22841;50.252;18.688;2023-08-06T03:09:26;18.40;99.90
36924;DHT22;22841;50.252;18.688;2023-08-06T03:11:53;18.40;99.90
36924;DHT22;22841;50.252;18.688;2023-08-06T03:14:19;18.40;99.90
36924;DHT22;22841;50.252;18.688;2023-08-06T03:16:45;18.40;99.90
36924;DHT22;22841;50.252;18.688;2023-08-06T03:19:11;18.40;99.90
36924;DHT22;22841;50.252;18.688;2023-08-06T03:21:37;18.40;99.90
36924;DHT22;22841;50.252;18.688;2023-08-06T03:24:03;18.40;99.90
36924;DHT22;22841;50.252;18.688;2023-08-06T03:26:29;18.30;99.90
36924;DHT22;22841;50.252;18.688;2023-08-06T03:28:56;18.30;99.90
36924;DHT22;22841;50.252;18.688;2023-08-06T03:31:22;18.30;99.90
36924;DHT22;22841;50.252;18.688;2023-08-06T03:33:48;18.30;99.90
36924;DHT22;22841;50.252;18.688;2023-08-06T03:36:14;18.30;99.90
36924;DHT22;22841;50.252;18.688;2023-08-06T03:38:40;18.30;99.90
36924;DHT22;22841;50.252;18.688;2023-08-06T03:41:06;18.30;99.90
36924;DHT22;22841;50.252;18.688;2023-08-06T03:43:32;18.30;99.90
36924;DHT22;22841;50.252;18.688;2023-08-06T03:45:58;18.20;99.90
36924;DHT22;22841;50.252;18.688;2023-08-06T03:48:24;18.20;99.90
36924;DHT22;22841;50.252;18.688;2023-08-06T03:50:51;18.20;99.90
36924;DHT22;22841;50.252;18.688;2023-08-06T04:40:56;17.20;99.90
36924;DHT22;22841;50.252;18.688;2023-08-06T04:43:22;17.10;99.90
36924;DHT22;22841;50.252;18.688;2023-08-06T04:45:53;17.10;99.90
36924;DHT22;22841;50.252;18.688;2023-08-06T04:48:19;17.00;99.90
36924;DHT22;22841;50.252;18.688;2023-08-06T04:50:46;16.80;99.90
36924;DHT22;22841;50.252;18.688;2023-08-06T04:53:12;16.90;99.90
36924;DHT22;22841;50.252;18.688;2023-08-06T04:55:38;16.90;99.90
36924;DHT22;22841;50.252;18.688;2023-08-06T04:58:05;16.90;99.90
36924;DHT22;22841;50.252;18.688;2023-08-06T05:00:31;16.80;99.90
36924;DHT22;22841;50.252;18.688;2023-08-06T05:03:00;16.80;99.90
36924;DHT22;22841;50.252;18.688;2023-08-06T05:05:28;16.70;99.90
36924;DHT22;22841;50.252;18.688;2023-08-06T05:07:55;16.70;99.90
36924;DHT22;22841;50.252;18.688;2023-08-06T05:10:24;16.60;99.90
36924;DHT22;22841;50.252;18.688;2023-08-06T05:12:50;16.50;99.90
36924;DHT22;22841;50.252;18.688;2023-08-06T05:15:16;16.60;99.90
36924;DHT22;22841;50.252;18.688;2023-08-06T05:17:42;16.60;99.90
36924;DHT22;22841;50.252;18.688;2023-08-06T05:20:08;16.50;99.90
36924;DHT22;22841;50.252;18.688;2023-08-06T05:22:35;16.50;99.90
36924;DHT22;22841;50.252;18.688;2023-08-06T05:25:01;16.40;99.90
36924;DHT22;22841;50.252;18.688;2023-08-06T05:27:27;16.40;99.90
36924;DHT22;22841;50.252;18.688;2023-08-06T05:29:57;16.20;99.90
36924;DHT22;22841;50.252;18.688;2023-08-06T05:32:23;16.10;99.90
36924;DHT22;22841;50.252;18.688;2023-08-06T05:34:49;16.10;99.90
36924;DHT22;22841;50.252;18.688;2023-08-06T05:37:15;16.10;99.90
36924;DHT22;22841;50.252;18.688;2023-08-06T05:39:41;16.10;99.90
36924;DHT22;22841;50.252;18.688;2023-08-06T05:42:07;16.10;99.90
36924;DHT22;22841;50.252;18.688;2023-08-06T05:44:33;16.10;99.90
36924;DHT22;22841;50.252;18.688;2023-08-06T05:46:59;16.00;99.90
36924;DHT22;22841;50.252;18.688;2023-08-06T05:49:25;16.00;99.90
36924;DHT22;22841;50.252;18.688;2023-08-06T05:51:51;16.00;99.90
36924;DHT22;22841;50.252;18.688;2023-08-06T05:54:20;16.00;99.90
36924;DHT22;22841;50.252;18.688;2023-08-06T05:56:46;16.00;99.90
36924;DHT22;22841;50.252;18.688;2023-08-06T05:59:12;16.00;99.90
36924;DHT22;22841;50.252;18.688;2023-08-06T06:01:38;16.10;99.90
36924;DHT22;22841;50.252;18.688;2023-08-06T06:04:05;16.10;99.90
36924;DHT22;22841;50.252;18.688;2023-08-06T06:06:31;16.00;99.90
36924;DHT22;22841;50.252;18.688;2023-08-06T06:08:57;15.90;99.90
36924;DHT22;22841;50.252;18.688;2023-08-06T06:11:23;15.90;99.90
36924;DHT22;22841;50.252;18.688;2023-08-06T06:13:50;15.80;99.90
36924;DHT22;22841;50.252;18.688;2023-08-06T06:16:17;15.70;99.90
36924;DHT22;22841;50.252;18.688;2023-08-06T06:18:43;15.70;99.90
36924;DHT22;22841;50.252;18.688;2023-08-06T06:21:10;15.60;99.90
36924;DHT22;22841;50.252;18.688;2023-08-06T06:23:36;15.70;99.90
36924;DHT22;22841;50.252;18.688;2023-08-06T06:26:02;15.70;99.90
36924;DHT22;22841;50.252;18.688;2023-08-06T06:28:28;15.80;99.90
36924;DHT22;22841;50.252;18.688;2023-08-06T06:31:00;15.70;99.90
36924;DHT22;22841;50.252;18.688;2023-08-06T06:33:26;15.60;99.90
36924;DHT22;22841;50.252;18.688;2023-08-06T06:35:53;15.50;99.90
36924;DHT22;22841;50.252;18.688;2023-08-06T06:38:19;15.50;99.90
36924;DHT22;22841;50.252;18.688;2023-08-06T06:40:54;15.40;99.90
36924;DHT22;22841;50.252;18.688;2023-08-06T06:43:20;15.30;99.90
36924;DHT22;22841;50.252;18.688;2023-08-06T06:45:46;15.20;99.90
36924;DHT22;22841;50.252;18.688;2023-08-06T06:48:12;15.20;99.90
36924;DHT22;22841;50.252;18.688;2023-08-06T06:50:38;15.20;99.90
36924;DHT22;22841;50.252;18.688;2023-08-06T07:12:57;15.00;99.90
36924;DHT22;22841;50.252;18.688;2023-08-06T07:15:23;15.00;99.90
36924;DHT22;22841;50.252;18.688;2023-08-06T07:17:49;15.00;99.90
36924;DHT22;22841;50.252;18.688;2023-08-06T07:20:16;15.00;99.90
36924;DHT22;22841;50.252;18.688;2023-08-06T07:22:42;15.00;99.90
36924;DHT22;22841;50.252;18.688;2023-08-06T07:25:08;14.90;99.90
36924;DHT22;22841;50.252;18.688;2023-08-06T07:27:34;14.80;99.90
36924;DHT22;22841;50.252;18.688;2023-08-06T07:30:00;14.80;99.90
36924;DHT22;22841;50.252;18.688;2023-08-06T07:32:27;14.80;99.90
36924;DHT22;22841;50.252;18.688;2023-08-06T07:34:53;14.80;99.90
36924;DHT22;22841;50.252;18.688;2023-08-06T07:37:25;14.80;99.90
36924;DHT22;22841;50.252;18.688;2023-08-06T07:39:51;14.80;99.90
36924;DHT22;22841;50.252;18.688;2023-08-06T07:42:17;14.70;99.90
36924;DHT22;22841;50.252;18.688;2023-08-06T07:44:55;14.70;99.90
36924;DHT22;22841;50.252;18.688;2023-08-06T07:47:22;14.70;99.90
36924;DHT22;22841;50.252;18.688;2023-08-06T07:49:48;14.70;99.90
36924;DHT22;22841;50.252;18.688;2023-08-06T07:52:14;14.60;99.90
36924;DHT22;22841;50.252;18.688;2023-08-06T07:54:41;14.60;99.90
36924;DHT22;22841;50.252;18.688;2023-08-06T08:01:17;14.60;99.90
36924;DHT22;22841;50.252;18.688;2023-08-06T08:03:43;14.50;99.90
36924;DHT22;22841;50.252;18.688;2023-08-06T08:06:09;14.40;99.90
36924;DHT22;22841;50.252;18.688;2023-08-06T08:08:35;14.50;99.90
36924;DHT22;22841;50.252;18.688;2023-08-06T08:11:05;14.50;99.90
36924;DHT22;22841;50.252;18.688;2023-08-06T08:13:31;14.40;99.90
36924;DHT22;22841;50.252;18.688;2023-08-06T08:15:58;14.40;99.90
36924;DHT22;22841;50.252;18.688;2023-08-06T08:18:25;14.40;99.90
36924;DHT22;22841;50.252;18.688;2023-08-06T08:20:51;14.40;99.90
36924;DHT22;22841;50.252;18.688;2023-08-06T08:23:17;14.40;99.90
36924;DHT22;22841;50.252;18.688;2023-08-06T08:25:43;14.50;99.90
36924;DHT22;22841;50.252;18.688;2023-08-06T08:28:10;14.40;99.90
36924;DHT22;22841;50.252;18.688;2023-08-06T08:30:36;14.30;99.90
36924;DHT22;22841;50.252;18.688;2023-08-06T08:33:02;14.30;99.90
36924;DHT22;22841;50.252;18.688;2023-08-06T08:35:28;14.40;99.90
36924;DHT22;22841;50.252;18.688;2023-08-06T08:37:54;14.40;99.90
36924;DHT22;22841;50.252;18.688;2023-08-06T08:40:22;14.50;99.90
36924;DHT22;22841;50.252;18.688;2023-08-06T08:42:49;14.50;99.90
36924;DHT22;22841;50.252;18.688;2023-08-06T08:45:15;14.60;99.90
36924;DHT22;22841;50.252;18.688;2023-08-06T08:47:43;14.60;99.90
36924;DHT22;22841;50.252;18.688;2023-08-06T08:50:10;14.60;99.90
36924;DHT22;22841;50.252;18.688;2023-08-06T08:52:38;14.60;99.90
36924;DHT22;22841;50.252;18.688;2023-08-06T08:55:07;14.60;99.90
36924;DHT22;22841;50.252;18.688;2023-08-06T08:57:34;14.60;99.90
36924;DHT22;22841;50.252;18.688;2023-08-06T09:00:00;14.60;99.90
36924;DHT22;22841;50.252;18.688;2023-08-06T09:19:22;14.50;99.90
36924;DHT22;22841;50.252;18.688;2023-08-06T09:21:50;14.50;99.90
36924;DHT22;22841;50.252;18.688;2023-08-06T09:24:16;14.60;99.90
36924;DHT22;22841;50.252;18.688;2023-08-06T09:26:46;14.60;99.90
36924;DHT22;22841;50.252;18.688;2023-08-06T09:29:12;14.50;99.90
36924;DHT22;22841;50.252;18.688;2023-08-06T09:31:42;14.60;99.90
36924;DHT22;22841;50.252;18.688;2023-08-06T09:34:21;14.50;99.90
36924;DHT22;22841;50.252;18.688;2023-08-06T09:36:54;14.50;99.90
36924;DHT22;22841;50.252;18.688;2023-08-06T09:39:27;14.50;99.90
36924;DHT22;22841;50.252;18.688;2023-08-06T09:41:58;14.50;99.90
36924;DHT22;22841;50.252;18.688;2023-08-06T09:44:25;14.60;99.90
36924;DHT22;22841;50.252;18.688;2023-08-06T09:47:17;14.60;99.90
36924;DHT22;22841;50.252;18.688;2023-08-06T09:50:20;14.60;99.90
36924;DHT22;22841;50.252;18.688;2023-08-06T09:53:11;14.50;99.90
36924;DHT22;22841;50.252;18.688;2023-08-06T09:55:38;14.60;99.90
36924;DHT22;22841;50.252;18.688;2023-08-06T09:58:05;14.50;99.90
36924;DHT22;22841;50.252;18.688;2023-08-06T10:00:33;14.50;99.90
36924;DHT22;22841;50.252;18.688;2023-08-06T10:03:00;14.40;99.90
36924;DHT22;22841;50.252;18.688;2023-08-06T10:05:27;14.50;99.90
36924;DHT22;22841;50.252;18.688;2023-08-06T10:07:53;14.50;99.90
36924;DHT22;22841;50.252;18.688;2023-08-06T10:10:22;14.50;99.90
36924;DHT22;22841;50.252;18.688;2023-08-06T10:12:51;14.50;99.90
36924;DHT22;22841;50.252;18.688;2023-08-06T10:15:22;14.50;99.90
36924;DHT22;22841;50.252;18.688;2023-08-06T10:17:52;14.40;99.90
36924;DHT22;22841;50.252;18.688;2023-08-06T10:20:20;14.50;99.90
36924;DHT22;22841;50.252;18.688;2023-08-06T10:23:05;14.50;99.90
36924;DHT22;22841;50.252;18.688;2023-08-06T10:25:33;14.50;99.90
36924;DHT22;22841;50.252;18.688;2023-08-06T10:28:00;14.40;99.90
36924;DHT22;22841;50.252;18.688;2023-08-06T10:30:33;14.40;99.90
36924;DHT22;22841;50.252;18.688;2023-08-06T10:33:01;14.40;99.90
36924;DHT22;22841;50.252;18.688;2023-08-06T10:40:29;14.40;99.90
36924;DHT22;22841;50.252;18.688;2023-08-06T10:43:01;14.50;99.90
36924;DHT22;22841;50.252;18.688;2023-08-06T10:45:27;14.40;99.90
36924;DHT22;22841;50.252;18.688;2023-08-06T10:47:57;14.40;99.90
36924;DHT22;22841;50.252;18.688;2023-08-06T10:50:24;14.40;99.90
36924;DHT22;22841;50.252;18.688;2023-08-06T10:52:51;14.40;99.90
36924;DHT22;22841;50.252;18.688;2023-08-06T10:55:24;14.40;99.90
36924;DHT22;22841;50.252;18.688;2023-08-06T10:57:51;14.40;99.90
36924;DHT22;22841;50.252;18.688;2023-08-06T11:00:17;14.40;99.90
36924;DHT22;22841;50.252;18.688;2023-08-06T11:02:43;14.40;99.90
36924;DHT22;22841;50.252;18.688;2023-08-06T11:05:10;14.50;99.90
36924;DHT22;22841;50.252;18.688;2023-08-06T11:08:01;14.50;99.90
36924;DHT22;22841;50.252;18.688;2023-08-06T11:10:28;14.60;99.90
36924;DHT22;22841;50.252;18.688;2023-08-06T11:12:54;14.50;99.90
36924;DHT22;22841;50.252;18.688;2023-08-06T11:15:20;14.60;99.90
36924;DHT22;22841;50.252;18.688;2023-08-06T11:17:47;14.60;99.90
36924;DHT22;22841;50.252;18.688;2023-08-06T11:20:13;14.60;99.90
36924;DHT22;22841;50.252;18.688;2023-08-06T11:22:39;14.70;99.90
36924;DHT22;22841;50.252;18.688;2023-08-06T11:25:07;14.60;99.90
36924;DHT22;22841;50.252;18.688;2023-08-06T11:27:33;14.70;99.90
36924;DHT22;22841;50.252;18.688;2023-08-06T11:29:59;14.70;99.90
36924;DHT22;22841;50.252;18.688;2023-08-06T11:32:25;14.70;99.90
36924;DHT22;22841;50.252;18.688;2023-08-06T11:34:53;14.60;99.90
36924;DHT22;22841;50.252;18.688;2023-08-06T11:37:23;14.70;99.90
36924;DHT22;22841;50.252;18.688;2023-08-06T11:39:50;14.70;99.90
36924;DHT22;22841;50.252;18.688;2023-08-06T11:42:17;14.70;99.90
36924;DHT22;22841;50.252;18.688;2023-08-06T11:44:43;14.70;99.90
36924;DHT22;22841;50.252;18.688;2023-08-06T11:47:17;14.60;99.90
36924;DHT22;22841;50.252;18.688;2023-08-06T11:49:48;14.60;99.90
36924;DHT22;22841;50.252;18.688;2023-08-06T11:52:20;14.70;99.90
36924;DHT22;22841;50.252;18.688;2023-08-06T11:55:09;14.70;99.90
36924;DHT22;22841;50.252;18.688;2023-08-06T11:57:38;14.80;99.90
36924;DHT22;22841;50.252;18.688;2023-08-06T12:00:07;14.80;99.90
36924;DHT22;22841;50.252;18.688;2023-08-06T12:02:34;14.90;99.90
36924;DHT22;22841;50.252;18.688;2023-08-06T12:05:16;14.80;99.90
36924;DHT22;22841;50.252;18.688;2023-08-06T12:10:19;14.80;99.90
36924;DHT22;22841;50.252;18.688;2023-08-06T12:12:48;14.80;99.90
36924;DHT22;22841;50.252;18.688;2023-08-06T12:15:16;14.80;99.90
36924;DHT22;22841;50.252;18.688;2023-08-06T12:17:42;14.80;99.90
36924;DHT22;22841;50.252;18.688;2023-08-06T12:20:09;14.80;99.90
36924;DHT22;22841;50.252;18.688;2023-08-06T12:22:36;14.80;99.90
36924;DHT22;22841;50.252;18.688;2023-08-06T12:25:05;14.80;99.90
36924;DHT22;22841;50.252;18.688;2023-08-06T12:27:41;14.80;99.90
36924;DHT22;22841;50.252;18.688;2023-08-06T12:30:08;14.80;99.90
36924;DHT22;22841;50.252;18.688;2023-08-06T12:32:35;14.90;99.90
36924;DHT22;22841;50.252;18.688;2023-08-06T12:35:01;14.80;99.90
36924;DHT22;22841;50.252;18.688;2023-08-06T12:37:29;14.80;99.90
36924;DHT22;22841;50.252;18.688;2023-08-06T12:39:55;14.80;99.90
36924;DHT22;22841;50.252;18.688;2023-08-06T12:42:21;14.80;99.90
36924;DHT22;22841;50.252;18.688;2023-08-06T12:44:50;14.80;99.90
36924;DHT22;22841;50.252;18.688;2023-08-06T12:47:17;14.90;99.90
36924;DHT22;22841;50.252;18.688;2023-08-06T12:49:44;15.00;99.90
36924;DHT22;22841;50.252;18.688;2023-08-06T12:52:10;14.90;99.90
36924;DHT22;22841;50.252;18.688;2023-08-06T12:54:38;14.90;99.90
36924;DHT22;22841;50.252;18.688;2023-08-06T12:57:05;15.00;99.90
36924;DHT22;22841;50.252;18.688;2023-08-06T12:59:32;15.10;99.90
36924;DHT22;22841;50.252;18.688;2023-08-06T13:02:02;15.10;99.90
36924;DHT22;22841;50.252;18.688;2023-08-06T13:04:29;15.00;99.90
36924;DHT22;22841;50.252;18.688;2023-08-06T13:06:55;15.00;99.90
36924;DHT22;22841;50.252;18.688;2023-08-06T13:09:21;15.00;99.90
36924;DHT22;22841;50.252;18.688;2023-08-06T13:11:47;14.90;99.90
36924;DHT22;22841;50.252;18.688;2023-08-06T13:14:16;14.90;99.90
36924;DHT22;22841;50.252;18.688;2023-08-06T13:16:43;14.90;99.90
36924;DHT22;22841;50.252;18.688;2023-08-06T13:19:09;14.90;99.90
36924;DHT22;22841;50.252;18.688;2023-08-06T13:22:01;14.90;99.90
36924;DHT22;22841;50.252;18.688;2023-08-06T13:24:32;14.90;99.90
36924;DHT22;22841;50.252;18.688;2023-08-06T13:26:58;15.00;99.90
36924;DHT22;22841;50.252;18.688;2023-08-06T13:29:25;15.00;99.90
36924;DHT22;22841;50.252;18.688;2023-08-06T13:31:52;15.00;99.90
36924;DHT22;22841;50.252;18.688;2023-08-06T13:34:18;15.00;99.90
36924;DHT22;22841;50.252;18.688;2023-08-06T13:36:44;15.00;99.90
36924;DHT22;22841;50.252;18.688;2023-08-06T13:39:11;15.00;99.90
36924;DHT22;22841;50.252;18.688;2023-08-06T13:41:37;15.00;99.90
36924;DHT22;22841;50.252;18.688;2023-08-06T13:44:05;15.10;99.90
36924;DHT22;22841;50.252;18.688;2023-08-06T13:46:31;15.00;99.90
36924;DHT22;22841;50.252;18.688;2023-08-06T13:48:57;15.00;99.90
36924;DHT22;22841;50.252;18.688;2023-08-06T13:51:23;15.10;99.90
36924;DHT22;22841;50.252;18.688;2023-08-06T13:53:49;15.20;99.90
36924;DHT22;22841;50.252;18.688;2023-08-06T13:56:15;15.20;99.90
36924;DHT22;22841;50.252;18.688;2023-08-06T13:58:43;15.20;99.90
36924;DHT22;22841;50.252;18.688;2023-08-06T14:01:10;15.20;99.90
36924;DHT22;22841;50.252;18.688;2023-08-06T14:03:37;15.20;99.90
36924;DHT22;22841;50.252;18.688;2023-08-06T14:06:03;15.10;99.90
36924;DHT22;22841;50.252;18.688;2023-08-06T14:08:54;15.10;99.90
36924;DHT22;22841;50.252;18.688;2023-08-06T14:11:20;15.10;99.90
36924;DHT22;22841;50.252;18.688;2023-08-06T14:13:47;15.10;99.90
36924;DHT22;22841;50.252;18.688;2023-08-06T14:16:13;15.10;99.90
36924;DHT22;22841;50.252;18.688;2023-08-06T14:18:39;15.10;99.90
36924;DHT22;22841;50.252;18.688;2023-08-06T14:21:07;15.10;99.90
36924;DHT22;22841;50.252;18.688;2023-08-06T14:23:34;15.10;99.90
36924;DHT22;22841;50.252;18.688;2023-08-06T14:26:00;15.00;99.90
36924;DHT22;22841;50.252;18.688;2023-08-06T14:28:26;15.10;99.90
36924;DHT22;22841;50.252;18.688;2023-08-06T14:30:52;15.00;99.90
36924;DHT22;22841;50.252;18.688;2023-08-06T14:33:18;15.10;99.90
36924;DHT22;22841;50.252;18.688;2023-08-06T14:35:44;15.10;99.90
36924;DHT22;22841;50.252;18.688;2023-08-06T14:38:11;15.00;99.90
36924;DHT22;22841;50.252;18.688;2023-08-06T14:40:37;15.10;99.90
36924;DHT22;22841;50.252;18.688;2023-08-06T14:43:07;15.10;99.90
36924;DHT22;22841;50.252;18.688;2023-08-06T14:45:33;15.00;99.90
36924;DHT22;22841;50.252;18.688;2023-08-06T14:47:59;15.00;99.90
36924;DHT22;22841;50.252;18.688;2023-08-06T14:50:25;15.00;99.90
36924;DHT22;22841;50.252;18.688;2023-08-06T14:52:51;15.00;99.90
36924;DHT22;22841;50.252;18.688;2023-08-06T14:55:23;15.00;99.90
36924;DHT22;22841;50.252;18.688;2023-08-06T14:57:50;15.00;99.90
36924;DHT22;22841;50.252;18.688;2023-08-06T15:00:16;15.10;99.90
36924;DHT22;22841;50.252;18.688;2023-08-06T15:02:42;15.10;99.90
36924;DHT22;22841;50.252;18.688;2023-08-06T15:05:10;15.10;99.90
36924;DHT22;22841;50.252;18.688;2023-08-06T15:07:36;15.10;99.90
36924;DHT22;22841;50.252;18.688;2023-08-06T15:10:04;15.00;99.90
36924;DHT22;22841;50.252;18.688;2023-08-06T15:12:31;15.00;99.90
36924;DHT22;22841;50.252;18.688;2023-08-06T15:14:58;14.90;99.90
36924;DHT22;22841;50.252;18.688;2023-08-06T15:17:26;14.90;99.90
36924;DHT22;22841;50.252;18.688;2023-08-06T15:19:53;14.80;99.90
36924;DHT22;22841;50.252;18.688;2023-08-06T15:22:19;14.90;99.90
36924;DHT22;22841;50.252;18.688;2023-08-06T15:24:45;14.90;99.90
36924;DHT22;22841;50.252;18.688;2023-08-06T15:27:11;14.90;99.90
36924;DHT22;22841;50.252;18.688;2023-08-06T15:29:38;14.80;99.90
36924;DHT22;22841;50.252;18.688;2023-08-06T15:32:04;14.80;99.90
36924;DHT22;22841;50.252;18.688;2023-08-06T15:34:30;14.80;99.90
36924;DHT22;22841;50.252;18.688;2023-08-06T15:36:56;14.90;99.90
36924;DHT22;22841;50.252;18.688;2023-08-06T15:39:22;14.90;99.90
36924;DHT22;22841;50.252;18.688;2023-08-06T15:41:48;14.90;99.90
36924;DHT22;22841;50.252;18.688;2023-08-06T15:44:40;14.90;99.90
36924;DHT22;22841;50.252;18.688;2023-08-06T15:47:06;14.90;99.90
36924;DHT22;22841;50.252;18.688;2023-08-06T15:56:06;15.00;99.90
36924;DHT22;22841;50.252;18.688;2023-08-06T15:58:32;14.90;99.90
36924;DHT22;22841;50.252;18.688;2023-08-06T16:00:58;14.90;99.90
36924;DHT22;22841;50.252;18.688;2023-08-06T16:03:24;14.90;99.90
36924;DHT22;22841;50.252;18.688;2023-08-06T16:05:50;14.80;99.90
36924;DHT22;22841;50.252;18.688;2023-08-06T16:08:16;14.90;99.90
36924;DHT22;22841;50.252;18.688;2023-08-06T16:10:42;14.80;99.90
36924;DHT22;22841;50.252;18.688;2023-08-06T16:13:11;14.80;99.90
36924;DHT22;22841;50.252;18.688;2023-08-06T16:15:37;14.80;99.90
36924;DHT22;22841;50.252;18.688;2023-08-06T16:18:03;14.80;99.90
36924;DHT22;22841;50.252;18.688;2023-08-06T16:20:30;14.80;99.90
36924;DHT22;22841;50.252;18.688;2023-08-06T16:22:56;14.80;99.90
36924;DHT22;22841;50.252;18.688;2023-08-06T16:25:22;14.90;99.90
36924;DHT22;22841;50.252;18.688;2023-08-06T16:27:48;14.80;99.90
36924;DHT22;22841;50.252;18.688;2023-08-06T16:30:15;14.80;99.90
36924;DHT22;22841;50.252;18.688;2023-08-06T16:32:42;14.90;99.90
36924;DHT22;22841;50.252;18.688;2023-08-06T16:35:09;14.90;99.90
36924;DHT22;22841;50.252;18.688;2023-08-06T16:37:36;14.90;99.90
36924;DHT22;22841;50.252;18.688;2023-08-06T16:40:04;14.90;99.90
36924;DHT22;22841;50.252;18.688;2023-08-06T16:42:31;14.90;99.90
36924;DHT22;22841;50.252;18.688;2023-08-06T16:44:57;14.90;99.90
36924;DHT22;22841;50.252;18.688;2023-08-06T16:47:23;14.90;99.90
36924;DHT22;22841;50.252;18.688;2023-08-06T16:49:49;14.90;99.90
36924;DHT22;22841;50.252;18.688;2023-08-06T16:52:15;14.90;99.90
36924;DHT22;22841;50.252;18.688;2023-08-06T16:54:42;14.90;99.90
36924;DHT22;22841;50.252;18.688;2023-08-06T16:57:09;14.90;99.90
36924;DHT22;22841;50.252;18.688;2023-08-06T16:59:35;14.90;99.90
36924;DHT22;22841;50.252;18.688;2023-08-06T17:02:01;14.90;99.90
36924;DHT22;22841;50.252;18.688;2023-08-06T17:04:27;14.90;99.90
36924;DHT22;22841;50.252;18.688;2023-08-06T17:06:53;14.90;99.90
36924;DHT22;22841;50.252;18.688;2023-08-06T17:09:45;14.90;99.90